Observation data for Memphis on 07/23/2019      Previous  Date  Next       Current Mesonet Observations  Soil Data  Daily Summary Page  Observations in Plain Language
KMES 230500Z 04006KT 23/13 A3024 RMK A01 T02270131  RH  057%=      5-min Rain = 0
KMES 230505Z 03006KT 23/13 A3024 RMK A01 T02260130  RH  057%=      5-min Rain = 0
KMES 230510Z 03006KT 23/13 A3024 RMK A01 T02270130  RH  056%=      5-min Rain = 0
KMES 230515Z 03006KT 23/13 A3024 RMK A01 T02270129  RH  056%=      5-min Rain = 0
KMES 230520Z 03005KT 23/13 A3024 RMK A01 T02270129  RH  056%=      5-min Rain = 0
KMES 230525Z 03004KT 23/13 A3024 RMK A01 T02260128  RH  056%=      5-min Rain = 0
KMES 230530Z 02004KT 23/13 A3025 RMK A01 T02250128  RH  057%=      5-min Rain = 0
KMES 230535Z 02004KT 22/13 A3025 RMK A01 T02230129  RH  057%=      5-min Rain = 0
KMES 230540Z 02005KT 22/13 A3025 RMK A01 T02200130  RH  059%=      5-min Rain = 0
KMES 230545Z 02004KT 22/13 A3025 RMK A01 T02160130  RH  060%=      5-min Rain = 0
KMES 230550Z 03003KT 21/13 A3025 RMK A01 T02140130  RH  061%=      5-min Rain = 0
KMES 230555Z 03002KT 21/13 A3025 RMK A01 T02130130  RH  061%=      5-min Rain = 0
KMES 230600Z 02002KT 21/13 A3025 RMK A01 T02120130  RH  062%=      5-min Rain = 0
KMES 230605Z 01003KT 21/13 A3025 RMK A01 T02110130  RH  062%=      5-min Rain = 0
KMES 230610Z 01004KT 21/13 A3025 RMK A01 T02100130  RH  063%=      5-min Rain = 0
KMES 230615Z 00004KT 21/13 A3025 RMK A01 T02110131  RH  063%=      5-min Rain = 0
KMES 230620Z 00004KT 21/13 A3025 RMK A01 T02090131  RH  063%=      5-min Rain = 0
KMES 230625Z 00003KT 21/13 A3026 RMK A01 T02070131  RH  064%=      5-min Rain = 0
KMES 230630Z 36003KT 21/13 A3026 RMK A01 T02060131  RH  065%=      5-min Rain = 0
KMES 230635Z 36004KT 21/13 A3026 RMK A01 T02060131  RH  065%=      5-min Rain = 0
KMES 230640Z 36004KT 21/13 A3026 RMK A01 T02060131  RH  065%=      5-min Rain = 0
KMES 230645Z 36005KT 21/13 A3025 RMK A01 T02050132  RH  065%=      5-min Rain = 0
KMES 230650Z 00005KT 21/13 A3025 RMK A01 T02050131  RH  065%=      5-min Rain = 0
KMES 230655Z 01005KT 21/13 A3025 RMK A01 T02050131  RH  065%=      5-min Rain = 0
KMES 230700Z 01005KT 21/13 A3025 RMK A01 T02050131  RH  065%=      5-min Rain = 0
KMES 230705Z 01004KT 20/13 A3025 RMK A01 T02040131  RH  066%=      5-min Rain = 0
KMES 230710Z 01004KT 20/13 A3025 RMK A01 T02030131  RH  066%=      5-min Rain = 0
KMES 230715Z 01004KT 20/13 A3025 RMK A01 T02010131  RH  067%=      5-min Rain = 0
KMES 230720Z 00004KT 20/13 A3025 RMK A01 T01990131  RH  067%=      5-min Rain = 0
KMES 230725Z 36004KT 20/13 A3025 RMK A01 T01990132  RH  068%=      5-min Rain = 0
KMES 230730Z 35003KT 20/13 A3025 RMK A01 T01980132  RH  068%=      5-min Rain = 0
KMES 230735Z 34004KT 20/13 A3025 RMK A01 T01990132  RH  068%=      5-min Rain = 0
KMES 230740Z 35003KT 20/13 A3025 RMK A01 T01990132  RH  068%=      5-min Rain = 0
KMES 230745Z 35002KT 20/13 A3025 RMK A01 T01980132  RH  068%=      5-min Rain = 0
KMES 230750Z 35002KT 20/13 A3025 RMK A01 T01970132  RH  069%=      5-min Rain = 0
KMES 230755Z 36003KT 20/13 A3025 RMK A01 T01960132  RH  069%=      5-min Rain = 0
KMES 230800Z 00004KT 20/13 A3025 RMK A01 T01950132  RH  070%=      5-min Rain = 0
KMES 230805Z 01005KT 19/13 A3025 RMK A01 T01930132  RH  070%=      5-min Rain = 0
KMES 230810Z 01004KT 19/13 A3025 RMK A01 T01930132  RH  071%=      5-min Rain = 0
KMES 230815Z 01004KT 19/13 A3025 RMK A01 T01930132  RH  071%=      5-min Rain = 0
KMES 230820Z 01005KT 19/13 A3025 RMK A01 T01940132  RH  070%=      5-min Rain = 0
KMES 230825Z 00004KT 19/13 A3025 RMK A01 T01930132  RH  070%=      5-min Rain = 0
KMES 230830Z 00004KT 19/13 A3025 RMK A01 T01930132  RH  071%=      5-min Rain = 0
KMES 230835Z 35002KT 19/13 A3025 RMK A01 T01920132  RH  071%=      5-min Rain = 0
KMES 230840Z 31000KT 19/13 A3025 RMK A01 T01890132  RH  072%=      5-min Rain = 0
KMES 230845Z 33001KT 19/13 A3024 RMK A01 T01880133  RH  073%=      5-min Rain = 0
KMES 230850Z 00002KT 19/13 A3025 RMK A01 T01880133  RH  074%=      5-min Rain = 0
KMES 230855Z 00004KT 19/13 A3025 RMK A01 T01880134  RH  073%=      5-min Rain = 0
KMES 230900Z 36004KT 19/13 A3025 RMK A01 T01890133  RH  073%=      5-min Rain = 0
KMES 230905Z 00004KT 19/13 A3025 RMK A01 T01890133  RH  073%=      5-min Rain = 0
KMES 230910Z 36004KT 19/13 A3024 RMK A01 T01890133  RH  073%=      5-min Rain = 0
KMES 230915Z 35002KT 19/13 A3024 RMK A01 T01890133  RH  073%=      5-min Rain = 0
KMES 230920Z 34001KT 19/13 A3024 RMK A01 T01890133  RH  073%=      5-min Rain = 0
KMES 230925Z 04000KT 19/13 A3024 RMK A01 T01880133  RH  073%=      5-min Rain = 0
KMES 230930Z 01001KT 19/13 A3024 RMK A01 T01880133  RH  073%=      5-min Rain = 0
KMES 230935Z 36003KT 19/13 A3025 RMK A01 T01890133  RH  073%=      5-min Rain = 0
KMES 230940Z 01003KT 19/13 A3025 RMK A01 T01890133  RH  073%=      5-min Rain = 0
KMES 230945Z 00003KT 19/13 A3025 RMK A01 T01880133  RH  073%=      5-min Rain = 0
KMES 230950Z 00004KT 19/13 A3025 RMK A01 T01870133  RH  074%=      5-min Rain = 0
KMES 230955Z 01003KT 19/13 A3025 RMK A01 T01860133  RH  074%=      5-min Rain = 0
KMES 231000Z 01003KT 19/13 A3025 RMK A01 T01860133  RH  074%=      5-min Rain = 0
KMES 231005Z 01004KT 19/13 A3025 RMK A01 T01860133  RH  074%=      5-min Rain = 0
KMES 231010Z 01004KT 19/13 A3025 RMK A01 T01850133  RH  075%=      5-min Rain = 0
KMES 231015Z 01004KT 19/13 A3025 RMK A01 T01860133  RH  075%=      5-min Rain = 0
KMES 231020Z 02003KT 19/13 A3025 RMK A01 T01850133  RH  075%=      5-min Rain = 0
KMES 231025Z 02003KT 19/13 A3025 RMK A01 T01850133  RH  075%=      5-min Rain = 0
KMES 231030Z 01003KT 19/13 A3025 RMK A01 T01850133  RH  075%=      5-min Rain = 0
KMES 231035Z 01003KT 18/13 A3026 RMK A01 T01840133  RH  075%=      5-min Rain = 0
KMES 231040Z 01004KT 18/13 A3026 RMK A01 T01830133  RH  076%=      5-min Rain = 0
KMES 231045Z 02005KT 18/13 A3026 RMK A01 T01830134  RH  076%=      5-min Rain = 0
KMES 231050Z 02005KT 19/13 A3026 RMK A01 T01860134  RH  075%=      5-min Rain = 0
KMES 231055Z 02005KT 19/14 A3026 RMK A01 T01870135  RH  074%=      5-min Rain = 0
KMES 231100Z 02005KT 19/14 A3026 RMK A01 T01880135  RH  074%=      5-min Rain = 0
KMES 231105Z 01005KT 19/14 A3027 RMK A01 T01880135  RH  074%=      5-min Rain = 0
KMES 231110Z 01005KT 19/14 A3027 RMK A01 T01880135  RH  074%=      5-min Rain = 0
KMES 231115Z 01006KT 19/14 A3027 RMK A01 T01880135  RH  075%=      5-min Rain = 0
KMES 231120Z 01006KT 19/14 A3027 RMK A01 T01870136  RH  075%=      5-min Rain = 0
KMES 231125Z 00006KT 19/14 A3028 RMK A01 T01870136  RH  076%=      5-min Rain = 0
KMES 231130Z 00006KT 19/14 A3028 RMK A01 T01860137  RH  076%=      5-min Rain = 0
KMES 231135Z 00006KT 19/14 A3028 RMK A01 T01860137  RH  076%=      5-min Rain = 0
KMES 231140Z 01006KT 19/14 A3028 RMK A01 T01850137  RH  077%=      5-min Rain = 0
KMES 231145Z 01006KT 19/14 A3028 RMK A01 T01850138  RH  077%=      5-min Rain = 0
KMES 231150Z 01005KT 19/14 A3028 RMK A01 T01850138  RH  078%=      5-min Rain = 0
KMES 231155Z 02004KT 19/14 A3028 RMK A01 T01850139  RH  078%=      5-min Rain = 0
KMES 231200Z 02005KT 19/14 A3028 RMK A01 T01850140  RH  078%=      5-min Rain = 0
KMES 231205Z 02005KT 19/14 A3029 RMK A01 T01860140  RH  078%=      5-min Rain = 0
KMES 231210Z 02006KT 19/14 A3029 RMK A01 T01860140  RH  078%=      5-min Rain = 0
KMES 231215Z 02006KT 19/14 A3029 RMK A01 T01880141  RH  078%=      5-min Rain = 0
KMES 231220Z 03005KT 19/14 A3029 RMK A01 T01890142  RH  077%=      5-min Rain = 0
KMES 231225Z 03005KT 19/14 A303 RMK A01 T01910143  RH  077%=      5-min Rain = 0
KMES 231230Z 02005KT 19/14 A303 RMK A01 T01930143  RH  076%=      5-min Rain = 0
KMES 231235Z 02004KT 19/14 A303 RMK A01 T01940144  RH  076%=      5-min Rain = 0
KMES 231240Z 03004KT 20/14 A303 RMK A01 T01960144  RH  076%=      5-min Rain = 0
KMES 231245Z 03004KT 20/15 A303 RMK A01 T01980145  RH  075%=      5-min Rain = 0
KMES 231250Z 02004KT 20/15 A303 RMK A01 T01990146  RH  074%=      5-min Rain = 0
KMES 231255Z 02004KT 20/15 A303 RMK A01 T02010146  RH  074%=      5-min Rain = 0
KMES 231300Z 03005KT 20/15 A303 RMK A01 T02030146  RH  073%=      5-min Rain = 0
KMES 231305Z 04005KT 21/15 A303 RMK A01 T02050146  RH  072%=      5-min Rain = 0
KMES 231310Z 05006KT 21/15 A303 RMK A01 T02080145  RH  070%=      5-min Rain = 0
KMES 231315Z 04007KT 21/14 A303 RMK A01 T02100144  RH  069%=      5-min Rain = 0
KMES 231320Z 05007KT 21/14 A3031 RMK A01 T02120143  RH  068%=      5-min Rain = 0
KMES 231325Z 05008KT 22/14 A3031 RMK A01 T02150142  RH  066%=      5-min Rain = 0
KMES 231330Z 06007KT 22/14 A3031 RMK A01 T02160142  RH  065%=      5-min Rain = 0
KMES 231335Z 05009KT 22/14 A3031 RMK A01 T02170140  RH  064%=      5-min Rain = 0
KMES 231340Z 05008KT 22/14 A3031 RMK A01 T02190140  RH  063%=      5-min Rain = 0
KMES 231345Z 06008KT 22/14 A3031 RMK A01 T02200139  RH  062%=      5-min Rain = 0
KMES 231350Z 07008KT 22/14 A3031 RMK A01 T02230137  RH  061%=      5-min Rain = 0
KMES 231355Z 07009G14KT 22/14 A3031 RMK A01 T02240136  RH  060%=      5-min Rain = 0
KMES 231400Z 07008G14KT 23/14 A3031 RMK A01 T02260135  RH  059%=      5-min Rain = 0
KMES 231405Z 08007KT 23/14 A3032 RMK A01 T02260136  RH  059%=      5-min Rain = 0
KMES 231410Z 08007KT 23/14 A3032 RMK A01 T02280137  RH  059%=      5-min Rain = 0
KMES 231415Z 07008KT 23/14 A3032 RMK A01 T02280136  RH  058%=      5-min Rain = 0
KMES 231420Z 08007KT 23/14 A3032 RMK A01 T02290136  RH  058%=      5-min Rain = 0
KMES 231425Z 09008KT 23/14 A3032 RMK A01 T02290136  RH  058%=      5-min Rain = 0
KMES 231430Z 08006G11KT 23/14 A3032 RMK A01 T02300138  RH  058%=      5-min Rain = 0
KMES 231435Z 07008KT 23/14 A3032 RMK A01 T02340137  RH  057%=      5-min Rain = 0
KMES 231440Z 07006KT 24/14 A3032 RMK A01 T02350138  RH  057%=      5-min Rain = 0
KMES 231445Z 07006G11KT 24/14 A3032 RMK A01 T02380138  RH  056%=      5-min Rain = 0
KMES 231450Z 06007KT 24/14 A3032 RMK A01 T02390137  RH  055%=      5-min Rain = 0
KMES 231455Z 06006KT 24/14 A3032 RMK A01 T02380137  RH  055%=      5-min Rain = 0
KMES 231500Z 07006KT 24/14 A3031 RMK A01 T02400138  RH  055%=      5-min Rain = 0
KMES 231505Z 10005KT 24/14 A3031 RMK A01 T02420138  RH  054%=      5-min Rain = 0
KMES 231510Z 07007KT 24/14 A3031 RMK A01 T02440135  RH  053%=      5-min Rain = 0
KMES 231515Z 08006KT 24/14 A3031 RMK A01 T02440136  RH  053%=      5-min Rain = 0
KMES 231520Z 09007KT 25/14 A3031 RMK A01 T02450135  RH  052%=      5-min Rain = 0
KMES 231525Z 09006KT 25/14 A3031 RMK A01 T02460136  RH  052%=      5-min Rain = 0
KMES 231530Z 09005KT 25/14 A3031 RMK A01 T02490135  RH  051%=      5-min Rain = 0
KMES 231535Z 07005KT 25/13 A3031 RMK A01 T02480134  RH  051%=      5-min Rain = 0
KMES 231540Z 06007KT 25/13 A3031 RMK A01 T02470134  RH  051%=      5-min Rain = 0
KMES 231545Z 06006G11KT 25/13 A3031 RMK A01 T02470134  RH  051%=      5-min Rain = 0
KMES 231550Z 10006KT 25/14 A3031 RMK A01 T02530137  RH  051%=      5-min Rain = 0
KMES 231555Z 11004KT 26/14 A3031 RMK A01 T02550135  RH  049%=      5-min Rain = 0
KMES 231600Z 11005KT 25/14 A3031 RMK A01 T02520136  RH  051%=      5-min Rain = 0
KMES 231605Z 10005KT 25/14 A3031 RMK A01 T02540136  RH  050%=      5-min Rain = 0
KMES 231610Z 12005KT 26/14 A3031 RMK A01 T02560137  RH  050%=      5-min Rain = 0
KMES 231615Z 12004G9KT 26/14 A3031 RMK A01 T02590137  RH  049%=      5-min Rain = 0
KMES 231620Z 13005KT 26/14 A3031 RMK A01 T02610137  RH  049%=      5-min Rain = 0
KMES 231625Z 14005KT 26/14 A3031 RMK A01 T02590137  RH  049%=      5-min Rain = 0
KMES 231630Z 13004G11KT 26/14 A3031 RMK A01 T02590138  RH  049%=      5-min Rain = 0
KMES 231635Z 06003G11KT 27/14 A3031 RMK A01 T02650139  RH  048%=      5-min Rain = 0
KMES 231640Z 05002KT 27/14 A3031 RMK A01 T02660138  RH  047%=      5-min Rain = 0
KMES 231645Z 04002KT 27/14 A303 RMK A01 T02660136  RH  047%=      5-min Rain = 0
KMES 231650Z 02003KT 27/14 A303 RMK A01 T02650135  RH  047%=      5-min Rain = 0
KMES 231655Z 07006KT 27/14 A303 RMK A01 T02670135  RH  046%=      5-min Rain = 0
KMES 231700Z 02002KT 26/14 A303 RMK A01 T02640135  RH  047%=      5-min Rain = 0
KMES 231705Z 02005G10KT 27/14 A303 RMK A01 T02680135  RH  046%=      5-min Rain = 0
KMES 231710Z 05007KT 27/13 A303 RMK A01 T02680132  RH  045%=      5-min Rain = 0
KMES 231715Z 03002G7KT 27/13 A303 RMK A01 T02660133  RH  045%=      5-min Rain = 0
KMES 231720Z 06003G8KT 27/13 A3029 RMK A01 T02690132  RH  045%=      5-min Rain = 0
KMES 231725Z 08003KT 27/13 A3029 RMK A01 T02710134  RH  045%=      5-min Rain = 0
KMES 231730Z 09005KT 27/13 A3029 RMK A01 T02720134  RH  044%=      5-min Rain = 0
KMES 231735Z 09004KT 27/13 A3028 RMK A01 T02720133  RH  044%=      5-min Rain = 0
KMES 231740Z 03004KT 27/13 A3028 RMK A01 T02730133  RH  044%=      5-min Rain = 0
KMES 231745Z 00004KT 27/13 A3028 RMK A01 T02730133  RH  044%=      5-min Rain = 0
KMES 231750Z 36004G10KT 28/14 A3028 RMK A01 T02770137  RH  044%=      5-min Rain = 0
KMES 231755Z 03007G13KT 28/13 A3028 RMK A01 T02790131  RH  042%=      5-min Rain = 0
KMES 231800Z 01005KT 28/13 A3027 RMK A01 T02780131  RH  042%=      5-min Rain = 0
KMES 231805Z 36003KT 28/13 A3027 RMK A01 T02760133  RH  043%=      5-min Rain = 0
KMES 231810Z 04006G11KT 28/13 A3027 RMK A01 T02760131  RH  042%=      5-min Rain = 0
KMES 231815Z 06004KT 27/13 A3027 RMK A01 T02740131  RH  043%=      5-min Rain = 0
KMES 231820Z 08007KT 28/13 A3026 RMK A01 T02780131  RH  042%=      5-min Rain = 0
KMES 231825Z 12005G10KT 28/13 A3026 RMK A01 T02780133  RH  043%=      5-min Rain = 0
KMES 231830Z 05004KT 28/13 A3026 RMK A01 T02770130  RH  042%=      5-min Rain = 0
KMES 231835Z 06004G10KT 27/13 A3026 RMK A01 T02740130  RH  043%=      5-min Rain = 0
KMES 231840Z 07006KT 28/13 A3026 RMK A01 T02770130  RH  042%=      5-min Rain = 0
KMES 231845Z 07006KT 28/13 A3025 RMK A01 T02770129  RH  042%=      5-min Rain = 0
KMES 231850Z 05003G8KT 28/13 A3025 RMK A01 T02760128  RH  042%=      5-min Rain = 0
KMES 231855Z 03007KT 28/13 A3025 RMK A01 T02790129  RH  041%=      5-min Rain = 0
KMES 231900Z 07007G12KT 29/13 A3025 RMK A01 T02860130  RH  040%=      5-min Rain = 0
KMES 231905Z 05007G13KT 29/13 A3025 RMK A01 T02900129  RH  038%=      5-min Rain = 0
KMES 231910Z 05007KT 29/12 A3025 RMK A01 T02930124  RH  037%=      5-min Rain = 0
KMES 231915Z 09002KT 29/13 A3025 RMK A01 T02890125  RH  038%=      5-min Rain = 0
KMES 231920Z 09005KT 29/13 A3025 RMK A01 T02910129  RH  038%=      5-min Rain = 0
KMES 231925Z 04009G14KT 29/12 A3025 RMK A01 T02930121  RH  036%=      5-min Rain = 0
KMES 231930Z 02007KT 29/12 A3024 RMK A01 T02930122  RH  036%=      5-min Rain = 0
KMES 231935Z 36005KT 30/12 A3024 RMK A01 T02950123  RH  036%=      5-min Rain = 0
KMES 231940Z 02006G11KT 29/12 A3024 RMK A01 T02940124  RH  036%=      5-min Rain = 0
KMES 231945Z 03005KT 30/12 A3024 RMK A01 T02950124  RH  036%=      5-min Rain = 0
KMES 231950Z 05010G16KT 29/12 A3023 RMK A01 T02930122  RH  036%=      5-min Rain = 0
KMES 231955Z 06008G14KT 29/12 A3023 RMK A01 T02890121  RH  037%=      5-min Rain = 0
KMES 232000Z 09007KT 29/12 A3023 RMK A01 T02900124  RH  037%=      5-min Rain = 0
KMES 232005Z 08004KT 29/12 A3023 RMK A01 T02880121  RH  037%=      5-min Rain = 0
KMES 232010Z 06009G15KT 29/12 A3023 RMK A01 T02900118  RH  036%=      5-min Rain = 0
KMES 232015Z 05007G13KT 29/12 A3023 RMK A01 T02940117  RH  035%=      5-min Rain = 0
KMES 232020Z 02005KT 30/11 A3023 RMK A01 T02950114  RH  034%=      5-min Rain = 0
KMES 232025Z 03009G18KT 29/11 A3023 RMK A01 T02940112  RH  033%=      5-min Rain = 0
KMES 232030Z 36009KT 30/12 A3022 RMK A01 T02980116  RH  034%=      5-min Rain = 0
KMES 232035Z 00006G11KT 30/12 A3022 RMK A01 T03020117  RH  033%=      5-min Rain = 0
KMES 232040Z 01010G15KT 30/11 A3022 RMK A01 T03030111  RH  032%=      5-min Rain = 0
KMES 232045Z 36008KT 30/11 A3021 RMK A01 T03030113  RH  032%=      5-min Rain = 0
KMES 232050Z 05008G13KT 31/11 A3021 RMK A01 T03050113  RH  032%=      5-min Rain = 0
KMES 232055Z 05009G15KT 31/11 A3021 RMK A01 T03050114  RH  032%=      5-min Rain = 0
KMES 232100Z 08005KT 31/11 A3021 RMK A01 T03050114  RH  032%=      5-min Rain = 0
KMES 232105Z 04009G14KT 31/11 A302 RMK A01 T03060111  RH  031%=      5-min Rain = 0
KMES 232110Z 04008G16KT 31/11 A302 RMK A01 T03050111  RH  031%=      5-min Rain = 0
KMES 232115Z 06007G12KT 31/11 A302 RMK A01 T03070114  RH  032%=      5-min Rain = 0
KMES 232120Z 06007KT 30/11 A302 RMK A01 T03030113  RH  032%=      5-min Rain = 0
KMES 232125Z 06009G16KT 31/11 A302 RMK A01 T03060108  RH  031%=      5-min Rain = 0
KMES 232130Z 04008G13KT 30/10 A302 RMK A01 T03020102  RH  030%=      5-min Rain = 0
KMES 232135Z 03006KT 30/11 A302 RMK A01 T03020107  RH  031%=      5-min Rain = 0
KMES 232140Z 04008G15KT 31/11 A302 RMK A01 T03090110  RH  030%=      5-min Rain = 0
KMES 232145Z 04010G15KT 31/11 A302 RMK A01 T03060111  RH  031%=      5-min Rain = 0
KMES 232150Z 04010G15KT 30/11 A3019 RMK A01 T03010110  RH  032%=      5-min Rain = 0
KMES 232155Z 05009G14KT 30/11 A3019 RMK A01 T03030105  RH  030%=      5-min Rain = 0
KMES 232200Z 06008G13KT 30/10 A3019 RMK A01 T03040104  RH  030%=      5-min Rain = 0
KMES 232205Z 34007KT 31/10 A3019 RMK A01 T03060101  RH  029%=      5-min Rain = 0
KMES 232210Z 35006G11KT 31/11 A3018 RMK A01 T03050107  RH  030%=      5-min Rain = 0
KMES 232215Z 05010G15KT 31/11 A3018 RMK A01 T03080108  RH  030%=      5-min Rain = 0
KMES 232220Z 05010KT 31/11 A3018 RMK A01 T03100107  RH  029%=      5-min Rain = 0
KMES 232225Z 06008G13KT 31/11 A3018 RMK A01 T03050108  RH  031%=      5-min Rain = 0
KMES 232230Z 06007KT 31/11 A3018 RMK A01 T03060107  RH  030%=      5-min Rain = 0
KMES 232235Z 07006KT 30/11 A3018 RMK A01 T03040106  RH  030%=      5-min Rain = 0
KMES 232240Z 07008KT 30/10 A3018 RMK A01 T03040104  RH  030%=      5-min Rain = 0
KMES 232245Z 06007KT 31/10 A3018 RMK A01 T03050100  RH  029%=      5-min Rain = 0
KMES 232250Z 06007G16KT 30/10 A3017 RMK A01 T03020104  RH  030%=      5-min Rain = 0
KMES 232255Z 04010G15KT 30/10 A3017 RMK A01 T03040104  RH  030%=      5-min Rain = 0
KMES 232300Z 02006G14KT 30/10 A3017 RMK A01 T03030103  RH  030%=      5-min Rain = 0
KMES 232305Z 05006G12KT 30/10 A3017 RMK A01 T03020104  RH  030%=      5-min Rain = 0
KMES 232310Z 09006KT 30/11 A3017 RMK A01 T03030106  RH  031%=      5-min Rain = 0
KMES 232315Z 06010KT 30/11 A3016 RMK A01 T03030105  RH  030%=      5-min Rain = 0
KMES 232320Z 05008KT 30/10 A3016 RMK A01 T03030103  RH  030%=      5-min Rain = 0
KMES 232325Z 05007G14KT 30/10 A3016 RMK A01 T03020104  RH  030%=      5-min Rain = 0
KMES 232330Z 04007G12KT 30/10 A3016 RMK A01 T03030103  RH  030%=      5-min Rain = 0
KMES 232335Z 07008KT 30/10 A3016 RMK A01 T03020102  RH  030%=      5-min Rain = 0
KMES 232340Z 06006KT 30/10 A3016 RMK A01 T03000103  RH  030%=      5-min Rain = 0
KMES 232345Z 08007G14KT 30/10 A3016 RMK A01 T03000104  RH  031%=      5-min Rain = 0
KMES 232350Z 05010KT 30/10 A3016 RMK A01 T03000103  RH  030%=      5-min Rain = 0
KMES 232355Z 06007G13KT 30/10 A3016 RMK A01 T03000103  RH  031%=      5-min Rain = 0
KMES 240000Z 06008KT 30/10 A3016 RMK A01 T02990101  RH  030%=      5-min Rain = 0
KMES 240005Z 06005KT 30/10 A3016 RMK A01 T02970101  RH  031%=      5-min Rain = 0
KMES 240010Z 05008KT 30/10 A3016 RMK A01 T02980101  RH  030%=      5-min Rain = 0
KMES 240015Z 06007G12KT 30/10 A3016 RMK A01 T02980101  RH  030%=      5-min Rain = 0
KMES 240020Z 04008KT 30/10 A3016 RMK A01 T02980101  RH  030%=      5-min Rain = 0
KMES 240025Z 06008KT 30/10 A3016 RMK A01 T02970099  RH  030%=      5-min Rain = 0
KMES 240030Z 07009G14KT 30/10 A3016 RMK A01 T02950100  RH  031%=      5-min Rain = 0
KMES 240035Z 06010KT 29/10 A3016 RMK A01 T02940099  RH  031%=      5-min Rain = 0
KMES 240040Z 06009KT 29/10 A3016 RMK A01 T02920097  RH  031%=      5-min Rain = 0
KMES 240045Z 06009KT 29/10 A3016 RMK A01 T02920098  RH  031%=      5-min Rain = 0
KMES 240050Z 07010KT 29/10 A3016 RMK A01 T02900097  RH  031%=      5-min Rain = 0
KMES 240055Z 07008KT 29/10 A3016 RMK A01 T02880098  RH  032%=      5-min Rain = 0
KMES 240100Z 07008KT 29/10 A3017 RMK A01 T02870097  RH  031%=      5-min Rain = 0
KMES 240105Z 07007G12KT 29/10 A3017 RMK A01 T02860096  RH  031%=      5-min Rain = 0
KMES 240110Z 08008KT 28/10 A3017 RMK A01 T02840096  RH  032%=      5-min Rain = 0
KMES 240115Z 07008KT 28/10 A3017 RMK A01 T02830095  RH  032%=      5-min Rain = 0
KMES 240120Z 08006KT 28/10 A3017 RMK A01 T02820096  RH  032%=      5-min Rain = 0
KMES 240125Z 08008KT 28/10 A3017 RMK A01 T02800095  RH  032%=      5-min Rain = 0
KMES 240130Z 08007G12KT 28/10 A3017 RMK A01 T02780095  RH  033%=      5-min Rain = 0
KMES 240135Z 08007KT 28/09 A3017 RMK A01 T02760094  RH  033%=      5-min Rain = 0
KMES 240140Z 08006KT 27/09 A3017 RMK A01 T02740094  RH  033%=      5-min Rain = 0
KMES 240145Z 08005KT 27/10 A3017 RMK A01 T02710096  RH  034%=      5-min Rain = 0
KMES 240150Z 08006KT 27/10 A3017 RMK A01 T02680097  RH  035%=      5-min Rain = 0
KMES 240155Z 08005KT 27/10 A3017 RMK A01 T02650097  RH  036%=      5-min Rain = 0
KMES 240200Z 08005KT 26/10 A3017 RMK A01 T02620096  RH  036%=      5-min Rain = 0
KMES 240205Z 07005KT 26/09 A3017 RMK A01 T02600094  RH  036%=      5-min Rain = 0
KMES 240210Z 08005KT 26/09 A3017 RMK A01 T02590094  RH  037%=      5-min Rain = 0
KMES 240215Z 08005KT 26/10 A3017 RMK A01 T02560095  RH  037%=      5-min Rain = 0
KMES 240220Z 08005KT 25/10 A3017 RMK A01 T02530095  RH  038%=      5-min Rain = 0
KMES 240225Z 08005KT 25/10 A3017 RMK A01 T02500095  RH  039%=      5-min Rain = 0
KMES 240230Z 08004KT 25/10 A3017 RMK A01 T02480095  RH  039%=      5-min Rain = 0
KMES 240235Z 08004KT 25/10 A3017 RMK A01 T02460095  RH  040%=      5-min Rain = 0
KMES 240240Z 08004KT 24/10 A3017 RMK A01 T02440095  RH  040%=      5-min Rain = 0
KMES 240245Z 08005KT 24/09 A3018 RMK A01 T02420094  RH  040%=      5-min Rain = 0
KMES 240250Z 08005KT 24/09 A3018 RMK A01 T02410093  RH  040%=      5-min Rain = 0
KMES 240255Z 08004KT 24/09 A3018 RMK A01 T02400093  RH  041%=      5-min Rain = 0
KMES 240300Z 08004KT 24/09 A3018 RMK A01 T02390092  RH  041%=      5-min Rain = 0
KMES 240305Z 08004KT 24/09 A3019 RMK A01 T02380093  RH  041%=      5-min Rain = 0
KMES 240310Z 08004KT 24/09 A3019 RMK A01 T02370093  RH  041%=      5-min Rain = 0
KMES 240315Z 08004KT 24/09 A3019 RMK A01 T02350094  RH  042%=      5-min Rain = 0
KMES 240320Z 08004KT 23/09 A3019 RMK A01 T02340093  RH  042%=      5-min Rain = 0
KMES 240325Z 08004KT 23/09 A3019 RMK A01 T02330093  RH  042%=      5-min Rain = 0
KMES 240330Z 08004KT 23/09 A3019 RMK A01 T02330093  RH  042%=      5-min Rain = 0
KMES 240335Z 08004KT 23/09 A302 RMK A01 T02330093  RH  042%=      5-min Rain = 0
KMES 240340Z 08003KT 23/09 A302 RMK A01 T02320092  RH  042%=      5-min Rain = 0
KMES 240345Z 07002KT 23/09 A302 RMK A01 T02310092  RH  042%=      5-min Rain = 0
KMES 240350Z 07001KT 23/09 A302 RMK A01 T02290093  RH  043%=      5-min Rain = 0
KMES 240355Z 07001KT 23/09 A302 RMK A01 T02260093  RH  044%=      5-min Rain = 0
KMES 240400Z 07002KT 22/09 A302 RMK A01 T02230093  RH  045%=      5-min Rain = 0
KMES 240405Z 08001KT 22/09 A302 RMK A01 T02210093  RH  045%=      5-min Rain = 0
KMES 240410Z 08001KT 22/09 A3021 RMK A01 T02200093  RH  046%=      5-min Rain = 0
KMES 240415Z 05000KT 22/09 A3021 RMK A01 T02200093  RH  046%=      5-min Rain = 0
KMES 240420Z 04000KT 22/09 A3021 RMK A01 T02200093  RH  046%=      5-min Rain = 0
KMES 240425Z 03001KT 22/10 A3021 RMK A01 T02190095  RH  047%=      5-min Rain = 0
KMES 240430Z 04002KT 22/10 A3021 RMK A01 T02150096  RH  048%=      5-min Rain = 0
KMES 240435Z 03002KT 21/10 A3021 RMK A01 T02090097  RH  050%=      5-min Rain = 0
KMES 240440Z 03001KT 21/10 A3021 RMK A01 T02060096  RH  051%=      5-min Rain = 0
KMES 240445Z 03001KT 21/09 A3021 RMK A01 T02080092  RH  049%=      5-min Rain = 0
KMES 240450Z 06000KT 21/09 A3021 RMK A01 T02110094  RH  048%=      5-min Rain = 0
KMES 240455Z 35000KT 21/10 A3021 RMK A01 T02100098  RH  050%=      5-min Rain = 0

Page generated in 0.0098 seconds.